sensor_id;sensor_type;location;lat;lon;timestamp;pressure;altitude;pressure_sealevel;temperature;humidity
31585;BME280;18191;51.288;12.390;2023-02-13T00:01:38;49263.47;;;-144.47;95.10
31585;BME280;18191;51.288;12.390;2023-02-13T00:06:28;49211.75;;;-144.47;95.45
31585;BME280;18191;51.288;12.390;2023-02-13T00:11:19;49205.78;;;-144.47;94.65
31585;BME280;18191;51.288;12.390;2023-02-13T00:16:09;49233.63;;;-144.47;94.04
31585;BME280;18191;51.288;12.390;2023-02-13T00:21:04;49173.94;;;-144.47;93.75
31585;BME280;18191;51.288;12.390;2023-02-13T00:25:54;49191.84;;;-144.47;94.25
31585;BME280;18191;51.288;12.390;2023-02-13T00:30:44;49187.88;;;-144.47;95.15
31585;BME280;18191;51.288;12.390;2023-02-13T00:35:34;49164.00;;;-144.47;95.08
31585;BME280;18191;51.288;12.390;2023-02-13T00:40:25;49199.81;;;-144.47;94.93
31585;BME280;18191;51.288;12.390;2023-02-13T00:45:15;49223.69;;;-144.47;94.44
31585;BME280;18191;51.288;12.390;2023-02-13T00:50:05;49197.81;;;-144.47;94.52
31585;BME280;18191;51.288;12.390;2023-02-13T00:54:55;49175.94;;;-144.47;93.65
31585;BME280;18191;51.288;12.390;2023-02-13T00:59:45;49227.66;;;-144.47;93.99
31585;BME280;18191;51.288;12.390;2023-02-13T01:04:36;49227.66;;;-144.47;94.26
31585;BME280;18191;51.288;12.390;2023-02-13T01:09:26;49187.88;;;-144.47;94.33
31585;BME280;18191;51.288;12.390;2023-02-13T01:14:16;49223.69;;;-144.47;94.20
31585;BME280;18191;51.288;12.390;2023-02-13T01:19:06;49175.94;;;-144.47;93.97
31585;BME280;18191;51.288;12.390;2023-02-13T01:23:56;49171.97;;;-144.47;93.98
31585;BME280;18191;51.288;12.390;2023-02-13T01:28:47;49207.78;;;-144.47;93.90
31585;BME280;18191;51.288;12.390;2023-02-13T01:33:37;49175.94;;;-144.47;93.54
31585;BME280;18191;51.288;12.390;2023-02-13T01:38:27;49201.81;;;-144.47;94.02
31585;BME280;18191;51.288;12.390;2023-02-13T01:43:17;49223.69;;;-144.47;94.29
31585;BME280;18191;51.288;12.390;2023-02-13T01:48:21;49209.75;;;-144.47;94.18
31585;BME280;18191;51.288;12.390;2023-02-13T01:53:13;49207.78;;;-144.47;93.26
31585;BME280;18191;51.288;12.390;2023-02-13T01:58:06;49215.72;;;-144.47;93.46
31585;BME280;18191;51.288;12.390;2023-02-13T02:03:00;49193.84;;;-144.47;92.91
31585;BME280;18191;51.288;12.390;2023-02-13T02:07:52;49187.88;;;-144.47;94.44
31585;BME280;18191;51.288;12.390;2023-02-13T02:12:54;49235.63;;;-144.47;94.86
31585;BME280;18191;51.288;12.390;2023-02-13T02:17:47;49251.53;;;-144.47;94.78
31585;BME280;18191;51.288;12.390;2023-02-13T02:32:44;49223.69;;;-144.47;93.20
31585;BME280;18191;51.288;12.390;2023-02-13T02:37:43;49167.97;;;-144.47;94.15
31585;BME280;18191;51.288;12.390;2023-02-13T02:52:57;49205.78;;;-144.47;94.21
31585;BME280;18191;51.288;12.390;2023-02-13T02:57:54;49195.84;;;-144.47;94.32
31585;BME280;18191;51.288;12.390;2023-02-13T03:03:17;49189.88;;;-144.47;94.24
31585;BME280;18191;51.288;12.390;2023-02-13T03:08:28;49195.84;;;-144.47;91.80
31585;BME280;18191;51.288;12.390;2023-02-13T03:13:44;49203.78;;;-144.47;92.88
31585;BME280;18191;51.288;12.390;2023-02-13T03:18:39;49231.63;;;-144.47;92.31
31585;BME280;18191;51.288;12.390;2023-02-13T03:23:59;49219.72;;;-144.47;91.86
31585;BME280;18191;51.288;12.390;2023-02-13T03:28:57;49173.94;;;-144.47;92.48
31585;BME280;18191;51.288;12.390;2023-02-13T03:34:12;49195.84;;;-144.47;93.09
31585;BME280;18191;51.288;12.390;2023-02-13T03:39:08;49197.81;;;-144.47;93.55
31585;BME280;18191;51.288;12.390;2023-02-13T03:44:11;49229.66;;;-144.47;93.11
31585;BME280;18191;51.288;12.390;2023-02-13T03:49:03;49227.66;;;-144.47;92.96
31585;BME280;18191;51.288;12.390;2023-02-13T03:54:23;49199.81;;;-144.47;93.54
31585;BME280;18191;51.288;12.390;2023-02-13T03:59:34;49185.88;;;-144.47;92.56
31585;BME280;18191;51.288;12.390;2023-02-13T04:09:28;49148.09;;;-144.47;92.63
31585;BME280;18191;51.288;12.390;2023-02-13T04:14:20;49203.78;;;-144.47;93.24
31585;BME280;18191;51.288;12.390;2023-02-13T04:19:11;49219.72;;;-144.47;92.14
31585;BME280;18191;51.288;12.390;2023-02-13T04:24:02;49227.66;;;-144.47;92.01
31585;BME280;18191;51.288;12.390;2023-02-13T04:28:52;49187.88;;;-144.47;91.69
31585;BME280;18191;51.288;12.390;2023-02-13T04:33:42;49183.91;;;-144.47;89.76
31585;BME280;18191;51.288;12.390;2023-02-13T04:38:32;49215.72;;;-144.47;90.21
31585;BME280;18191;51.288;12.390;2023-02-13T04:43:24;49171.97;;;-144.47;90.02
31585;BME280;18191;51.288;12.390;2023-02-13T04:48:14;49215.72;;;-144.47;90.39
31585;BME280;18191;51.288;12.390;2023-02-13T04:53:04;49211.75;;;-144.47;90.17
31585;BME280;18191;51.288;12.390;2023-02-13T04:57:55;49209.75;;;-144.47;89.10
31585;BME280;18191;51.288;12.390;2023-02-13T05:02:45;49219.72;;;-144.47;89.05
31585;BME280;18191;51.288;12.390;2023-02-13T05:07:35;49219.72;;;-144.47;89.38
31585;BME280;18191;51.288;12.390;2023-02-13T05:12:25;49183.91;;;-144.47;90.24
31585;BME280;18191;51.288;12.390;2023-02-13T05:17:16;49181.91;;;-144.47;88.39
31585;BME280;18191;51.288;12.390;2023-02-13T05:22:07;49207.78;;;-144.47;89.62
31585;BME280;18191;51.288;12.390;2023-02-13T05:27:15;49231.63;;;-144.47;91.59
31585;BME280;18191;51.288;12.390;2023-02-13T05:32:06;49195.84;;;-144.47;91.66
31585;BME280;18191;51.288;12.390;2023-02-13T05:36:56;49219.72;;;-144.47;92.24
31585;BME280;18191;51.288;12.390;2023-02-13T05:41:47;49199.81;;;-144.47;92.15
31585;BME280;18191;51.288;12.390;2023-02-13T05:46:38;49201.81;;;-144.47;91.75
31585;BME280;18191;51.288;12.390;2023-02-13T05:51:29;49231.63;;;-144.47;92.36
31585;BME280;18191;51.288;12.390;2023-02-13T05:56:19;49215.72;;;-144.47;93.04
31585;BME280;18191;51.288;12.390;2023-02-13T06:01:09;49221.69;;;-144.47;93.03
31585;BME280;18191;51.288;12.390;2023-02-13T06:06:00;49223.69;;;-144.47;93.00
31585;BME280;18191;51.288;12.390;2023-02-13T06:10:50;49177.94;;;-144.47;92.68
31585;BME280;18191;51.288;12.390;2023-02-13T06:15:40;49201.81;;;-144.47;92.13
31585;BME280;18191;51.288;12.390;2023-02-13T06:20:31;49195.84;;;-144.47;92.47
31585;BME280;18191;51.288;12.390;2023-02-13T06:25:21;49199.81;;;-144.47;92.31
31585;BME280;18191;51.288;12.390;2023-02-13T06:30:11;49179.91;;;-144.47;92.11
31585;BME280;18191;51.288;12.390;2023-02-13T06:35:02;49191.84;;;-144.47;91.85
31585;BME280;18191;51.288;12.390;2023-02-13T06:39:52;49191.84;;;-144.47;92.21
31585;BME280;18191;51.288;12.390;2023-02-13T06:44:42;49193.84;;;-144.47;91.90
31585;BME280;18191;51.288;12.390;2023-02-13T06:49:32;49223.69;;;-144.47;90.13
31585;BME280;18191;51.288;12.390;2023-02-13T06:54:23;49207.78;;;-144.47;90.50
31585;BME280;18191;51.288;12.390;2023-02-13T06:59:13;49199.81;;;-144.47;90.48
31585;BME280;18191;51.288;12.390;2023-02-13T07:04:03;49213.75;;;-144.47;89.85
31585;BME280;18191;51.288;12.390;2023-02-13T07:08:53;49183.91;;;-144.47;88.99
31585;BME280;18191;51.288;12.390;2023-02-13T07:13:45;49195.84;;;-144.47;86.91
31585;BME280;18191;51.288;12.390;2023-02-13T07:18:35;49235.63;;;-144.47;87.53
31585;BME280;18191;51.288;12.390;2023-02-13T07:23:25;49195.84;;;-144.47;87.42
31585;BME280;18191;51.288;12.390;2023-02-13T07:28:15;49167.97;;;-144.47;86.98
31585;BME280;18191;51.288;12.390;2023-02-13T07:33:05;49195.84;;;-144.47;86.67
31585;BME280;18191;51.288;12.390;2023-02-13T07:37:56;49207.78;;;-144.47;86.78
31585;BME280;18191;51.288;12.390;2023-02-13T07:42:46;49154.06;;;-144.47;85.95
31585;BME280;18191;51.288;12.390;2023-02-13T07:47:36;49171.97;;;-144.47;86.20
31585;BME280;18191;51.288;12.390;2023-02-13T07:52:26;49187.88;;;-144.47;84.99
31585;BME280;18191;51.288;12.390;2023-02-13T07:57:16;49211.75;;;-144.47;83.66
31585;BME280;18191;51.288;12.390;2023-02-13T08:02:10;49207.78;;;-144.47;83.79
31585;BME280;18191;51.288;12.390;2023-02-13T08:07:01;49160.03;;;-144.47;83.50
31585;BME280;18191;51.288;12.390;2023-02-13T08:11:52;49179.91;;;-144.47;83.06
31585;BME280;18191;51.288;12.390;2023-02-13T08:16:42;49199.81;;;-144.47;81.64
31585;BME280;18191;51.288;12.390;2023-02-13T08:21:32;49203.78;;;-144.47;81.77
31585;BME280;18191;51.288;12.390;2023-02-13T08:26:24;49221.69;;;-144.47;81.26
31585;BME280;18191;51.288;12.390;2023-02-13T08:31:14;49211.75;;;-144.47;79.60
31585;BME280;18191;51.288;12.390;2023-02-13T08:36:04;49207.78;;;-144.47;81.06
31585;BME280;18191;51.288;12.390;2023-02-13T08:40:55;49199.81;;;-144.47;81.15
31585;BME280;18191;51.288;12.390;2023-02-13T08:45:45;49199.81;;;-144.47;79.30
31585;BME280;18191;51.288;12.390;2023-02-13T08:50:36;49219.72;;;-144.47;79.38
31585;BME280;18191;51.288;12.390;2023-02-13T08:55:26;49175.94;;;-144.47;78.54
31585;BME280;18191;51.288;12.390;2023-02-13T09:00:17;49207.78;;;-144.47;78.72
31585;BME280;18191;51.288;12.390;2023-02-13T09:05:07;49181.91;;;-144.47;78.76
31585;BME280;18191;51.288;12.390;2023-02-13T09:09:58;49187.88;;;-144.47;80.26
31585;BME280;18191;51.288;12.390;2023-02-13T09:14:48;49205.78;;;-144.47;79.64
31585;BME280;18191;51.288;12.390;2023-02-13T09:19:38;49197.81;;;-144.47;79.56
31585;BME280;18191;51.288;12.390;2023-02-13T09:24:28;49203.78;;;-144.47;78.17
31585;BME280;18191;51.288;12.390;2023-02-13T09:29:18;49175.94;;;-144.47;77.11
31585;BME280;18191;51.288;12.390;2023-02-13T09:34:08;49195.84;;;-144.47;77.43
31585;BME280;18191;51.288;12.390;2023-02-13T09:38:59;49199.81;;;-144.47;76.53
31585;BME280;18191;51.288;12.390;2023-02-13T09:43:51;49181.91;;;-144.47;76.36
31585;BME280;18191;51.288;12.390;2023-02-13T09:48:42;49183.91;;;-144.47;75.46
31585;BME280;18191;51.288;12.390;2023-02-13T09:53:35;49156.03;;;-144.47;75.74
31585;BME280;18191;51.288;12.390;2023-02-13T10:03:39;49164.00;;;-144.47;77.33
31585;BME280;18191;51.288;12.390;2023-02-13T10:08:51;49162.00;;;-144.47;77.33
31585;BME280;18191;51.288;12.390;2023-02-13T10:13:55;49211.75;;;-144.47;76.69
31585;BME280;18191;51.288;12.390;2023-02-13T10:18:55;49179.91;;;-144.47;75.92
31585;BME280;18191;51.288;12.390;2023-02-13T10:24:06;49193.84;;;-144.47;74.40
31585;BME280;18191;51.288;12.390;2023-02-13T10:29:01;49197.81;;;-144.47;75.10
31585;BME280;18191;51.288;12.390;2023-02-13T10:34:11;49187.88;;;-144.47;73.45
31585;BME280;18191;51.288;12.390;2023-02-13T10:44:06;49177.94;;;-144.47;72.27
31585;BME280;18191;51.288;12.390;2023-02-13T10:59:25;49171.97;;;-144.47;72.64
31585;BME280;18191;51.288;12.390;2023-02-13T11:04:18;49160.03;;;-144.47;73.22
31585;BME280;18191;51.288;12.390;2023-02-13T11:09:09;49191.84;;;-144.47;71.70
31585;BME280;18191;51.288;12.390;2023-02-13T11:14:09;49173.94;;;-144.47;71.33
31585;BME280;18191;51.288;12.390;2023-02-13T11:19:00;49191.84;;;-144.47;72.50
31585;BME280;18191;51.288;12.390;2023-02-13T11:23:51;49179.91;;;-144.47;72.89
31585;BME280;18191;51.288;12.390;2023-02-13T11:29:03;49191.84;;;-144.47;72.93
31585;BME280;18191;51.288;12.390;2023-02-13T11:33:54;49187.88;;;-144.47;71.75
31585;BME280;18191;51.288;12.390;2023-02-13T11:38:44;49167.97;;;-144.47;72.11
31585;BME280;18191;51.288;12.390;2023-02-13T11:48:25;49150.06;;;-144.47;71.07
31585;BME280;18191;51.288;12.390;2023-02-13T11:53:17;49201.81;;;-144.47;71.23
31585;BME280;18191;51.288;12.390;2023-02-13T12:02:59;49154.06;;;-144.47;70.80
31585;BME280;18191;51.288;12.390;2023-02-13T12:07:49;49199.81;;;-144.47;70.86
31585;BME280;18191;51.288;12.390;2023-02-13T12:12:41;49177.94;;;-144.47;68.49
31585;BME280;18191;51.288;12.390;2023-02-13T12:17:33;49166.00;;;-144.47;69.81
31585;BME280;18191;51.288;12.390;2023-02-13T12:32:17;49195.84;;;-144.47;69.53
31585;BME280;18191;51.288;12.390;2023-02-13T12:42:20;49144.09;;;-144.47;69.42
31585;BME280;18191;51.288;12.390;2023-02-13T12:47:17;49191.84;;;-144.47;70.23
31585;BME280;18191;51.288;12.390;2023-02-13T12:57:20;49187.88;;;-144.47;68.50
31585;BME280;18191;51.288;12.390;2023-02-13T13:12:48;49177.94;;;-144.47;70.80
31585;BME280;18191;51.288;12.390;2023-02-13T13:17:21;49140.13;;;-144.47;69.99
31585;BME280;18191;51.288;12.390;2023-02-13T13:22:20;49181.91;;;-144.47;71.71
31585;BME280;18191;51.288;12.390;2023-02-13T13:27:17;49175.94;;;-144.47;70.78
31585;BME280;18191;51.288;12.390;2023-02-13T13:32:10;49195.84;;;-144.47;71.40
31585;BME280;18191;51.288;12.390;2023-02-13T13:37:06;49160.03;;;-144.47;71.00
31585;BME280;18191;51.288;12.390;2023-02-13T13:52:10;49191.84;;;-144.47;71.19
31585;BME280;18191;51.288;12.390;2023-02-13T14:02:08;49169.97;;;-144.47;71.77
31585;BME280;18191;51.288;12.390;2023-02-13T14:11:51;49138.16;;;-144.47;71.02
31585;BME280;18191;51.288;12.390;2023-02-13T14:16:43;49189.88;;;-144.47;72.41
31585;BME280;18191;51.288;12.390;2023-02-13T14:21:33;49175.94;;;-144.47;72.34
31585;BME280;18191;51.288;12.390;2023-02-13T14:26:27;49179.91;;;-144.47;71.01
31585;BME280;18191;51.288;12.390;2023-02-13T14:31:20;49191.84;;;-144.47;72.55
31585;BME280;18191;51.288;12.390;2023-02-13T14:36:20;49179.91;;;-144.47;73.84
31585;BME280;18191;51.288;12.390;2023-02-13T14:46:21;49195.84;;;-144.47;74.10
31585;BME280;18191;51.288;12.390;2023-02-13T14:51:19;49156.03;;;-144.47;73.72
31585;BME280;18191;51.288;12.390;2023-02-13T14:56:18;49146.09;;;-144.47;72.89
31585;BME280;18191;51.288;12.390;2023-02-13T15:06:13;49185.88;;;-144.47;73.01
31585;BME280;18191;51.288;12.390;2023-02-13T15:11:07;49166.00;;;-144.47;73.79
31585;BME280;18191;51.288;12.390;2023-02-13T15:16:17;49173.94;;;-144.47;74.35
31585;BME280;18191;51.288;12.390;2023-02-13T15:21:12;49175.94;;;-144.47;74.55
31585;BME280;18191;51.288;12.390;2023-02-13T15:26:04;49171.97;;;-144.47;74.00
31585;BME280;18191;51.288;12.390;2023-02-13T15:36:01;49171.97;;;-144.47;74.63
31585;BME280;18191;51.288;12.390;2023-02-13T15:40:52;49183.91;;;-144.47;75.12
31585;BME280;18191;51.288;12.390;2023-02-13T15:45:44;49223.69;;;-144.47;75.39
31585;BME280;18191;51.288;12.390;2023-02-13T15:50:34;49177.94;;;-144.47;74.62
31585;BME280;18191;51.288;12.390;2023-02-13T15:55:26;49158.03;;;-144.47;74.68
31585;BME280;18191;51.288;12.390;2023-02-13T16:00:30;49195.84;;;-144.47;75.09
31585;BME280;18191;51.288;12.390;2023-02-13T16:05:20;49187.88;;;-144.47;76.05
31585;BME280;18191;51.288;12.390;2023-02-13T16:10:30;49167.97;;;-144.47;75.31
31585;BME280;18191;51.288;12.390;2023-02-13T16:15:21;49148.09;;;-144.47;76.59
31585;BME280;18191;51.288;12.390;2023-02-13T16:25:24;49187.88;;;-144.47;77.19
31585;BME280;18191;51.288;12.390;2023-02-13T16:30:23;49167.97;;;-144.47;77.48
31585;BME280;18191;51.288;12.390;2023-02-13T16:45:22;49191.84;;;-144.47;77.62
31585;BME280;18191;51.288;12.390;2023-02-13T16:50:13;49239.59;;;-144.47;78.47
31585;BME280;18191;51.288;12.390;2023-02-13T16:55:04;49199.81;;;-144.47;78.42
31585;BME280;18191;51.288;12.390;2023-02-13T16:59:59;49199.81;;;-144.47;78.84
31585;BME280;18191;51.288;12.390;2023-02-13T17:04:52;49207.78;;;-144.47;79.38
31585;BME280;18191;51.288;12.390;2023-02-13T17:09:42;49171.97;;;-144.47;78.85
31585;BME280;18191;51.288;12.390;2023-02-13T17:14:32;49185.88;;;-144.47;78.61
31585;BME280;18191;51.288;12.390;2023-02-13T17:19:23;49156.03;;;-144.47;78.58
31585;BME280;18191;51.288;12.390;2023-02-13T17:24:16;49203.78;;;-144.47;78.08
31585;BME280;18191;51.288;12.390;2023-02-13T17:29:07;49177.94;;;-144.47;78.71
31585;BME280;18191;51.288;12.390;2023-02-13T17:33:57;49158.03;;;-144.47;78.81
31585;BME280;18191;51.288;12.390;2023-02-13T17:38:47;49191.84;;;-144.47;78.91
31585;BME280;18191;51.288;12.390;2023-02-13T17:43:37;49167.97;;;-144.47;79.04
31585;BME280;18191;51.288;12.390;2023-02-13T17:48:27;49164.00;;;-144.47;79.50
31585;BME280;18191;51.288;12.390;2023-02-13T17:53:25;49201.81;;;-144.47;79.47
31585;BME280;18191;51.288;12.390;2023-02-13T17:58:15;49209.75;;;-144.47;79.85
31585;BME280;18191;51.288;12.390;2023-02-13T18:03:05;49175.94;;;-144.47;77.92
31585;BME280;18191;51.288;12.390;2023-02-13T18:07:55;49171.97;;;-144.47;79.71
31585;BME280;18191;51.288;12.390;2023-02-13T18:12:46;49175.94;;;-144.47;80.37
31585;BME280;18191;51.288;12.390;2023-02-13T18:17:37;49195.84;;;-144.47;80.62
31585;BME280;18191;51.288;12.390;2023-02-13T18:22:27;49201.81;;;-144.47;80.94
31585;BME280;18191;51.288;12.390;2023-02-13T18:27:17;49156.03;;;-144.47;80.80
31585;BME280;18191;51.288;12.390;2023-02-13T18:32:08;49167.97;;;-144.47;80.88
31585;BME280;18191;51.288;12.390;2023-02-13T18:36:58;49175.94;;;-144.47;81.22
31585;BME280;18191;51.288;12.390;2023-02-13T18:41:48;49179.91;;;-144.47;81.62
31585;BME280;18191;51.288;12.390;2023-02-13T18:46:38;49152.06;;;-144.47;81.97
31585;BME280;18191;51.288;12.390;2023-02-13T18:51:29;49183.91;;;-144.47;82.70
31585;BME280;18191;51.288;12.390;2023-02-13T18:56:19;49199.81;;;-144.47;83.78
31585;BME280;18191;51.288;12.390;2023-02-13T19:01:13;49181.91;;;-144.47;84.57
31585;BME280;18191;51.288;12.390;2023-02-13T19:06:04;49203.78;;;-144.47;85.39
31585;BME280;18191;51.288;12.390;2023-02-13T19:10:57;49227.66;;;-144.47;86.07
31585;BME280;18191;51.288;12.390;2023-02-13T19:15:47;49179.91;;;-144.47;86.90
31585;BME280;18191;51.288;12.390;2023-02-13T19:20:37;49215.72;;;-144.47;86.54
31585;BME280;18191;51.288;12.390;2023-02-13T19:25:30;49187.88;;;-144.47;87.46
31585;BME280;18191;51.288;12.390;2023-02-13T19:30:20;49203.78;;;-144.47;88.10
31585;BME280;18191;51.288;12.390;2023-02-13T19:35:10;49211.75;;;-144.47;88.55
31585;BME280;18191;51.288;12.390;2023-02-13T19:40:00;49199.81;;;-144.47;88.13
31585;BME280;18191;51.288;12.390;2023-02-13T19:44:50;49223.69;;;-144.47;88.02
31585;BME280;18191;51.288;12.390;2023-02-13T19:49:41;49219.72;;;-144.47;87.63
31585;BME280;18191;51.288;12.390;2023-02-13T19:54:31;49211.75;;;-144.47;88.40
31585;BME280;18191;51.288;12.390;2023-02-13T19:59:21;49183.91;;;-144.47;89.00
31585;BME280;18191;51.288;12.390;2023-02-13T20:04:11;49223.69;;;-144.47;88.78
31585;BME280;18191;51.288;12.390;2023-02-13T20:09:03;49211.75;;;-144.47;88.00
31585;BME280;18191;51.288;12.390;2023-02-13T20:13:55;49193.84;;;-144.47;89.48
31585;BME280;18191;51.288;12.390;2023-02-13T20:18:46;49223.69;;;-144.47;88.92
31585;BME280;18191;51.288;12.390;2023-02-13T20:23:36;49203.78;;;-144.47;88.78
31585;BME280;18191;51.288;12.390;2023-02-13T20:28:26;49183.91;;;-144.47;89.13
31585;BME280;18191;51.288;12.390;2023-02-13T20:33:16;49207.78;;;-144.47;89.59
31585;BME280;18191;51.288;12.390;2023-02-13T20:38:07;49183.91;;;-144.47;90.72
31585;BME280;18191;51.288;12.390;2023-02-13T20:42:57;49175.94;;;-144.47;89.79
31585;BME280;18191;51.288;12.390;2023-02-13T20:47:47;49179.91;;;-144.47;89.25
31585;BME280;18191;51.288;12.390;2023-02-13T20:52:37;49171.97;;;-144.47;90.53
31585;BME280;18191;51.288;12.390;2023-02-13T20:57:31;49175.94;;;-144.47;91.04
31585;BME280;18191;51.288;12.390;2023-02-13T21:02:21;49227.66;;;-144.47;90.29
31585;BME280;18191;51.288;12.390;2023-02-13T21:07:11;49219.72;;;-144.47;89.56
31585;BME280;18191;51.288;12.390;2023-02-13T21:12:01;49207.78;;;-144.47;90.65
31585;BME280;18191;51.288;12.390;2023-02-13T21:16:52;49211.75;;;-144.47;90.16
31585;BME280;18191;51.288;12.390;2023-02-13T21:21:42;49175.94;;;-144.47;90.82
31585;BME280;18191;51.288;12.390;2023-02-13T21:26:33;49179.91;;;-144.47;90.93
31585;BME280;18191;51.288;12.390;2023-02-13T21:31:24;49211.75;;;-144.47;90.94
31585;BME280;18191;51.288;12.390;2023-02-13T21:36:18;49203.78;;;-144.47;90.79
31585;BME280;18191;51.288;12.390;2023-02-13T21:41:12;49175.94;;;-144.47;91.53
31585;BME280;18191;51.288;12.390;2023-02-13T21:50:55;49171.97;;;-144.47;90.68
31585;BME280;18191;51.288;12.390;2023-02-13T21:55:45;49187.88;;;-144.47;90.82
31585;BME280;18191;51.288;12.390;2023-02-13T22:00:36;49160.03;;;-144.47;91.22
31585;BME280;18191;51.288;12.390;2023-02-13T22:05:26;49219.72;;;-144.47;90.64
31585;BME280;18191;51.288;12.390;2023-02-13T22:10:16;49181.91;;;-144.47;90.61
31585;BME280;18191;51.288;12.390;2023-02-13T22:15:06;49160.03;;;-144.47;90.62
31585;BME280;18191;51.288;12.390;2023-02-13T22:19:57;49169.97;;;-144.47;90.27
31585;BME280;18191;51.288;12.390;2023-02-13T22:24:47;49227.66;;;-144.47;90.17
31585;BME280;18191;51.288;12.390;2023-02-13T22:29:37;49203.78;;;-144.47;90.83
31585;BME280;18191;51.288;12.390;2023-02-13T22:34:29;49152.06;;;-144.47;90.98
31585;BME280;18191;51.288;12.390;2023-02-13T22:39:20;49191.84;;;-144.47;91.09
31585;BME280;18191;51.288;12.390;2023-02-13T22:44:10;49195.84;;;-144.47;91.09
31585;BME280;18191;51.288;12.390;2023-02-13T22:49:00;49199.81;;;-144.47;91.05
31585;BME280;18191;51.288;12.390;2023-02-13T22:53:51;49195.84;;;-144.47;91.13
31585;BME280;18191;51.288;12.390;2023-02-13T22:58:42;49213.75;;;-144.47;91.26
31585;BME280;18191;51.288;12.390;2023-02-13T23:03:32;49199.81;;;-144.47;91.20
31585;BME280;18191;51.288;12.390;2023-02-13T23:08:22;49140.13;;;-144.47;91.19
31585;BME280;18191;51.288;12.390;2023-02-13T23:13:13;49179.91;;;-144.47;91.30
31585;BME280;18191;51.288;12.390;2023-02-13T23:18:03;49183.91;;;-144.47;91.25
31585;BME280;18191;51.288;12.390;2023-02-13T23:23:02;49177.94;;;-144.47;91.32
31585;BME280;18191;51.288;12.390;2023-02-13T23:27:52;49171.97;;;-144.47;91.47
31585;BME280;18191;51.288;12.390;2023-02-13T23:32:45;49193.84;;;-144.47;91.23
31585;BME280;18191;51.288;12.390;2023-02-13T23:37:35;49187.88;;;-144.47;91.36
31585;BME280;18191;51.288;12.390;2023-02-13T23:42:26;49183.91;;;-144.47;91.04
31585;BME280;18191;51.288;12.390;2023-02-13T23:47:16;49164.00;;;-144.47;91.92
31585;BME280;18191;51.288;12.390;2023-02-13T23:52:06;49213.75;;;-144.47;91.96
31585;BME280;18191;51.288;12.390;2023-02-13T23:56:56;49171.97;;;-144.47;92.67
